createdAt,value
2022-10-22T00:15:24.126Z,87.2
2022-10-22T00:35:24.106Z,87.7
2022-10-22T00:55:24.098Z,87.8
2022-10-22T01:15:24.085Z,88.3
2022-10-22T01:35:24.178Z,88.1
2022-10-22T01:55:24.080Z,88.2
2022-10-22T02:15:24.073Z,88
2022-10-22T02:35:24.061Z,88.1
2022-10-22T02:55:24.066Z,87.8
2022-10-22T03:15:24.062Z,87.6
2022-10-22T03:35:24.047Z,87.6
2022-10-22T03:55:24.029Z,87.4
2022-10-22T04:15:24.043Z,88.1
2022-10-22T04:55:24.057Z,88.7
2022-10-22T05:15:24.029Z,88.7
2022-10-22T05:35:24.023Z,88.6
2022-10-22T05:55:23.998Z,88.7
2022-10-22T06:15:23.991Z,89
2022-10-22T06:35:23.986Z,89.3
2022-10-22T06:55:24.003Z,89
2022-10-22T07:15:23.979Z,87.8
2022-10-22T07:35:23.975Z,87.2
2022-10-22T07:55:23.957Z,84.9
2022-10-22T08:15:23.962Z,77.8
2022-10-22T08:35:23.953Z,76.8
2022-10-22T08:55:23.950Z,75.3
2022-10-22T09:15:23.955Z,74.8
2022-10-22T09:35:23.995Z,74.4
2022-10-22T09:55:23.927Z,74.1
2022-10-22T10:15:23.946Z,73.8
2022-10-22T10:35:23.896Z,73.3
2022-10-22T10:55:23.907Z,72.9
2022-10-22T11:15:23.893Z,71.2
2022-10-22T11:55:23.890Z,70.3
2022-10-22T12:15:23.873Z,69.8
2022-10-22T12:35:23.874Z,68.2
2022-10-22T12:55:23.853Z,68.9
2022-10-22T13:15:23.864Z,68.6
2022-10-22T13:35:23.840Z,68.4
2022-10-22T13:55:23.849Z,69.6
2022-10-22T14:15:23.881Z,68.8
2022-10-22T14:35:23.823Z,67.7
2022-10-22T14:55:23.821Z,67.2
2022-10-22T15:15:24.607Z,68.6
2022-10-22T15:35:23.809Z,70.7
2022-10-22T15:55:23.796Z,72.2
2022-10-22T16:15:23.790Z,72.8
2022-10-22T16:35:23.777Z,75
2022-10-22T17:15:23.811Z,80.6
2022-10-22T17:35:23.831Z,82.8
2022-10-22T17:55:23.778Z,83.1
2022-10-22T18:15:23.767Z,84
2022-10-22T18:35:23.764Z,84.8
2022-10-22T18:55:23.762Z,85.2
2022-10-22T19:15:23.798Z,83.8
2022-10-22T19:35:23.773Z,83.2
2022-10-22T19:55:23.736Z,83.5
2022-10-22T20:15:23.748Z,83.9
2022-10-22T21:55:23.713Z,83.6
2022-10-22T23:35:23.684Z,83.2
